Terminal Aerodrome Forecast
Issued by NWS

Home | Current Version | Previous Version | Graphics & Text | Print | Product List | Glossary On
Versions: 1 2 3 4 5 6 7 8 9 10 11 12 13 14 15 16
791
FTUS43 KABR 201720
TAFATY
TAF
KATY 201720Z 2018/2118 02007KT P6SM BKN080 OVC100
     FM211100 01010KT P6SM OVC100=

USA.gov is the U.S. government's official web portal to all federal, state and local government web resources and services.